createdAt,value
2018-02-03T00:01:42.440Z,15.73
2018-02-03T00:04:09.926Z,12.05
2018-02-03T00:06:37.409Z,11.02
2018-02-03T00:09:04.944Z,14.63
2018-02-03T00:11:32.418Z,11.43
2018-02-03T00:14:00.753Z,18.75
2018-02-03T00:16:29.277Z,15.48
2018-02-03T00:18:56.773Z,17.33
2018-02-03T00:21:24.261Z,13.25
2018-02-03T00:23:51.783Z,18.25
2018-02-03T00:26:19.274Z,14.87
2018-02-03T00:28:46.757Z,16.52
2018-02-03T00:31:14.333Z,16.77
2018-02-03T00:33:42.578Z,17.50
2018-02-03T00:36:10.062Z,12.00
2018-02-03T00:38:38.334Z,10.43
2018-02-03T00:41:05.871Z,10.70
2018-02-03T00:43:34.295Z,17.80
2018-02-03T00:46:01.902Z,20.50
2018-02-03T00:48:29.526Z,12.02
2018-02-03T00:50:57.041Z,19.10
2018-02-03T00:53:24.548Z,13.50
2018-02-03T00:55:52.050Z,17.85
2018-02-03T00:58:20.362Z,14.23
2018-02-03T01:00:48.607Z,14.70
2018-02-03T01:03:16.094Z,18.33
2018-02-03T01:05:44.514Z,15.07
2018-02-03T01:08:12.018Z,15.70
2018-02-03T01:10:39.623Z,15.07
2018-02-03T01:13:07.200Z,11.15
2018-02-03T01:15:35.673Z,18.67
2018-02-03T01:18:03.306Z,22.92
2018-02-03T01:20:30.809Z,14.45
2018-02-03T01:22:58.305Z,14.80
2018-02-03T01:25:26.600Z,13.32
2018-02-03T01:27:54.101Z,21.35
2018-02-03T01:30:21.593Z,15.10
2018-02-03T01:32:49.076Z,15.45
2018-02-03T01:35:17.621Z,15.05
2018-02-03T01:37:45.106Z,17.90
2018-02-03T01:40:13.364Z,16.48
2018-02-03T01:42:41.073Z,17.95
2018-02-03T01:45:09.343Z,12.45
2018-02-03T01:47:48.522Z,10.35
2018-02-03T01:50:16.095Z,17.05
2018-02-03T01:52:43.582Z,14.20
2018-02-03T01:55:11.098Z,16.42
2018-02-03T01:57:39.345Z,10.70
2018-02-03T02:00:06.833Z,15.07
2018-02-03T02:02:34.438Z,12.55
2018-02-03T02:05:01.954Z,13.80
2018-02-03T02:07:29.727Z,16.27
2018-02-03T02:09:57.322Z,18.98
2018-02-03T02:12:25.622Z,12.43
2018-02-03T02:14:53.142Z,10.95
2018-02-03T02:17:21.027Z,14.75
2018-02-03T02:19:48.517Z,16.90
2018-02-03T02:22:16.105Z,16.08
2018-02-03T02:24:43.661Z,12.80
2018-02-03T02:27:11.187Z,12.30
2018-02-03T02:29:38.662Z,17.27
2018-02-03T02:32:06.152Z,15.65
2018-02-03T02:34:33.638Z,10.98
2018-02-03T02:37:01.893Z,10.55
2018-02-03T02:39:29.866Z,16.23
2018-02-03T02:41:57.418Z,19.58
2018-02-03T02:44:24.950Z,21.45
2018-02-03T02:46:52.739Z,18.98
2018-02-03T02:49:20.389Z,18.50
2018-02-03T02:51:48.037Z,16.35
2018-02-03T02:54:15.610Z,13.75
2018-02-03T02:56:43.857Z,17.62
2018-02-03T02:59:11.370Z,15.95
2018-02-03T03:01:38.852Z,20.95
2018-02-03T03:04:06.343Z,20.60
2018-02-03T03:06:33.837Z,17.92
2018-02-03T03:09:01.523Z,17.40
2018-02-03T03:11:29.026Z,15.80
2018-02-03T03:13:56.617Z,16.17
2018-02-03T03:16:24.109Z,19.08
2018-02-03T03:18:52.452Z,17.60
2018-02-03T03:21:20.022Z,21.33
2018-02-03T03:23:47.535Z,20.83
2018-02-03T03:26:15.005Z,18.62
2018-02-03T03:28:42.606Z,14.45
2018-02-03T03:31:10.870Z,23.92
2018-02-03T03:33:38.349Z,13.77
2018-02-03T03:36:06.866Z,13.40
2018-02-03T03:38:34.353Z,20.10
2018-02-03T03:41:02.597Z,16.80
2018-02-03T03:43:30.090Z,20.27
2018-02-03T03:45:57.569Z,16.12
2018-02-03T03:48:25.054Z,11.65
2018-02-03T03:50:52.562Z,20.80
2018-02-03T03:53:20.109Z,11.07
2018-02-03T03:55:47.601Z,11.73
2018-02-03T03:58:15.090Z,17.30
2018-02-03T04:00:42.579Z,15.77
2018-02-03T04:03:10.049Z,15.98
2018-02-03T04:05:37.566Z,20.15
2018-02-03T04:08:05.058Z,18.70
2018-02-03T04:10:32.538Z,15.43
2018-02-03T04:13:00.038Z,16.73
2018-02-03T04:15:28.291Z,20.77
2018-02-03T04:17:55.765Z,17.52
2018-02-03T04:20:24.187Z,12.70
2018-02-03T04:22:51.685Z,15.18
2018-02-03T04:25:19.271Z,13.93
2018-02-03T04:27:46.783Z,13.02
2018-02-03T04:30:14.262Z,13.65
2018-02-03T04:32:41.774Z,11.25
2018-02-03T04:35:09.265Z,15.00
2018-02-03T04:37:36.755Z,13.07
2018-02-03T04:40:05.016Z,16.90
2018-02-03T04:42:32.524Z,19.48
2018-02-03T04:45:00.061Z,16.02
2018-02-03T04:47:27.713Z,12.57
2018-02-03T04:49:55.990Z,15.30
2018-02-03T04:52:24.398Z,19.42
2018-02-03T04:54:51.889Z,11.30
2018-02-03T04:57:20.246Z,19.35
2018-02-03T04:59:47.729Z,15.30
2018-02-03T05:02:15.265Z,14.73
2018-02-03T05:04:42.766Z,17.65
2018-02-03T05:07:10.449Z,15.65
2018-02-03T05:09:37.957Z,12.65
2018-02-03T05:12:05.497Z,16.30
2018-02-03T05:14:32.974Z,15.95
2018-02-03T05:17:00.490Z,13.27
2018-02-03T05:19:28.959Z,14.40
2018-02-03T05:21:57.205Z,12.40
2018-02-03T05:24:24.770Z,14.57
2018-02-03T05:26:52.283Z,15.52
2018-02-03T05:29:19.765Z,18.90
2018-02-03T05:31:47.258Z,19.20
2018-02-03T05:34:14.858Z,16.23
2018-02-03T05:36:43.113Z,19.10
2018-02-03T05:39:11.443Z,20.23
2018-02-03T05:41:39.094Z,16.45
2018-02-03T05:44:06.584Z,13.30
2018-02-03T05:46:34.198Z,19.30
2018-02-03T05:49:01.898Z,15.15
2018-02-03T05:51:29.446Z,22.52
2018-02-03T05:53:57.022Z,16.98
2018-02-03T05:56:24.530Z,15.98
2018-02-03T05:58:52.014Z,18.95
2018-02-03T06:01:19.495Z,21.27
2018-02-03T06:03:47.189Z,17.37
2018-02-03T06:06:15.585Z,15.85
2018-02-03T06:08:43.133Z,14.32
2018-02-03T06:11:11.436Z,25.73
2018-02-03T06:13:38.922Z,22.75
2018-02-03T06:16:06.421Z,18.20
2018-02-03T06:18:34.685Z,17.52
2018-02-03T06:21:02.203Z,25.08
2018-02-03T06:23:29.734Z,21.87
2018-02-03T06:25:57.389Z,20.35
2018-02-03T06:28:24.937Z,20.05
2018-02-03T06:30:52.478Z,25.20
2018-02-03T06:33:20.006Z,18.48
2018-02-03T06:35:47.490Z,20.90
2018-02-03T06:38:15.057Z,23.30
2018-02-03T06:40:42.686Z,23.85
2018-02-03T06:43:10.171Z,16.08
2018-02-03T06:45:37.795Z,21.70
2018-02-03T06:48:05.391Z,19.45
2018-02-03T06:50:32.877Z,22.92
2018-02-03T06:53:01.198Z,24.83
2018-02-03T06:55:28.843Z,24.08
2018-02-03T06:57:57.158Z,36.28
2018-02-03T07:00:24.789Z,28.00
2018-02-03T07:02:52.307Z,24.52
2018-02-03T07:05:19.886Z,27.67
2018-02-03T07:07:48.130Z,37.10
2018-02-03T07:10:15.645Z,31.65
2018-02-03T07:12:43.141Z,30.25
2018-02-03T07:15:10.629Z,29.15
2018-02-03T07:17:38.901Z,30.52
2018-02-03T07:20:07.211Z,34.40
2018-02-03T07:22:34.706Z,33.10
2018-02-03T07:25:02.258Z,40.60
2018-02-03T07:27:30.246Z,30.98
2018-02-03T07:29:59.186Z,29.65
2018-02-03T07:32:26.947Z,33.88
2018-02-03T07:34:55.984Z,29.48
2018-02-03T07:37:24.009Z,36.90
2018-02-03T07:39:51.699Z,25.60
2018-02-03T07:42:19.299Z,32.25
2018-02-03T07:44:47.567Z,33.67
2018-02-03T07:47:15.210Z,34.03
2018-02-03T07:49:42.938Z,31.75
2018-02-03T07:52:10.566Z,27.05
2018-02-03T07:54:38.105Z,31.10
2018-02-03T07:57:05.696Z,30.92
2018-02-03T07:59:34.143Z,32.50
2018-02-03T08:02:01.841Z,30.75
2018-02-03T08:04:30.111Z,39.00
2018-02-03T08:06:57.676Z,33.08
2018-02-03T08:09:26.412Z,31.15
2018-02-03T08:11:53.983Z,27.80
2018-02-03T08:14:21.483Z,25.73
2018-02-03T08:16:49.210Z,32.45
2018-02-03T08:19:16.714Z,25.20
2018-02-03T08:21:44.958Z,33.70
2018-02-03T08:24:12.498Z,27.70
2018-02-03T08:26:40.086Z,28.87
2018-02-03T08:29:07.632Z,29.58
2018-02-03T08:31:35.256Z,30.05
2018-02-03T08:34:02.745Z,32.25
2018-02-03T08:36:30.262Z,33.60
2018-02-03T08:38:57.754Z,29.08
2018-02-03T08:41:26.344Z,28.42
2018-02-03T08:43:53.971Z,29.02
2018-02-03T08:46:21.513Z,30.27
2018-02-03T08:48:49.762Z,30.98
2018-02-03T08:51:17.245Z,26.40
2018-02-03T08:53:45.730Z,23.98
2018-02-03T08:56:13.258Z,19.45
2018-02-03T08:58:40.838Z,22.73
2018-02-03T09:01:08.531Z,26.12
2018-02-03T09:03:36.058Z,26.23
2018-02-03T09:06:03.599Z,17.17
2018-02-03T09:08:31.195Z,22.48
2018-02-03T09:10:58.722Z,21.17
2018-02-03T09:13:26.320Z,21.20
2018-02-03T09:15:54.046Z,24.80
2018-02-03T09:18:22.366Z,19.77
2018-02-03T09:20:49.867Z,23.73
2018-02-03T09:23:17.365Z,24.50
2018-02-03T09:25:44.853Z,19.30
2018-02-03T09:28:12.366Z,15.32
2018-02-03T09:30:40.029Z,16.75
2018-02-03T09:33:07.534Z,17.30
2018-02-03T09:35:35.121Z,20.20
2018-02-03T09:38:02.783Z,23.98
2018-02-03T09:40:30.289Z,18.98
2018-02-03T09:42:58.542Z,21.27
2018-02-03T09:45:26.089Z,18.52
2018-02-03T09:47:53.577Z,15.00
2018-02-03T09:50:21.876Z,20.67
2018-02-03T09:52:50.119Z,18.80
2018-02-03T09:55:17.614Z,22.75
2018-02-03T09:57:45.145Z,23.60
2018-02-03T10:00:13.461Z,25.17
2018-02-03T10:02:40.998Z,26.83
2018-02-03T10:05:09.246Z,25.90
2018-02-03T10:07:36.738Z,20.90
2018-02-03T10:10:05.223Z,21.80
2018-02-03T10:12:32.730Z,22.33
2018-02-03T10:15:00.346Z,24.95
2018-02-03T10:17:28.099Z,25.37
2018-02-03T10:19:56.456Z,21.50
2018-02-03T10:22:24.194Z,24.83
2018-02-03T10:24:52.130Z,21.15
2018-02-03T10:27:19.821Z,20.17
2018-02-03T10:29:48.118Z,23.27
2018-02-03T10:32:15.613Z,19.27
2018-02-03T10:34:44.113Z,24.05
2018-02-03T10:37:11.754Z,21.77
2018-02-03T10:39:40.114Z,21.42
2018-02-03T10:42:09.275Z,18.80
2018-02-03T10:44:36.908Z,17.05
2018-02-03T10:47:04.508Z,17.87
2018-02-03T10:49:33.013Z,18.62
2018-02-03T10:52:00.760Z,21.02
2018-02-03T10:54:28.480Z,15.23
2018-02-03T10:56:56.886Z,19.05
2018-02-03T10:59:24.666Z,18.87
2018-02-03T11:01:53.145Z,21.02
2018-02-03T11:04:21.548Z,17.73
2018-02-03T11:06:49.272Z,21.45
2018-02-03T11:09:16.954Z,19.83
2018-02-03T11:11:44.606Z,19.58
2018-02-03T11:14:13.392Z,20.37
2018-02-03T11:16:40.991Z,19.45
2018-02-03T11:19:08.614Z,18.00
2018-02-03T11:21:36.295Z,18.95
2018-02-03T11:24:03.829Z,27.55
2018-02-03T11:26:31.322Z,28.38
2018-02-03T11:28:58.988Z,24.23
2018-02-03T11:31:27.377Z,21.92
2018-02-03T11:33:55.195Z,24.85
2018-02-03T11:36:23.583Z,24.75
2018-02-03T11:38:51.195Z,22.27
2018-02-03T11:41:19.622Z,26.33
2018-02-03T11:43:47.370Z,30.35
2018-02-03T11:46:15.041Z,29.35
2018-02-03T11:48:42.711Z,32.50
2018-02-03T11:51:10.329Z,30.70
2018-02-03T11:53:38.777Z,30.90
2018-02-03T11:56:07.123Z,34.30
2018-02-03T11:58:34.772Z,37.75
2018-02-03T12:01:02.387Z,42.42
2018-02-03T12:03:30.819Z,41.13
2018-02-03T12:06:01.261Z,37.83
2018-02-03T12:08:28.871Z,45.90
2018-02-03T12:10:56.586Z,45.83
2018-02-03T12:13:24.191Z,46.10
2018-02-03T12:15:52.524Z,41.35
2018-02-03T12:18:20.078Z,41.08
2018-02-03T12:20:47.625Z,50.63
2018-02-03T12:23:15.194Z,43.65
2018-02-03T12:25:42.755Z,42.30
2018-02-03T12:28:10.410Z,42.55
2018-02-03T12:30:37.926Z,47.62
2018-02-03T12:33:05.545Z,46.15
2018-02-03T12:35:51.795Z,45.53
2018-02-03T12:38:20.387Z,43.35
2018-02-03T12:40:48.708Z,51.75
2018-02-03T12:43:16.324Z,45.25
2018-02-03T12:45:43.875Z,46.47
2018-02-03T12:48:11.402Z,45.30
2018-02-03T12:50:38.906Z,45.22
2018-02-03T12:53:07.315Z,41.83
2018-02-03T12:55:34.964Z,43.95
2018-02-03T12:58:02.528Z,48.08
2018-02-03T13:00:30.159Z,38.85
2018-02-03T13:02:58.535Z,50.50
2018-02-03T13:05:26.823Z,44.45
2018-02-03T13:07:55.079Z,48.22
2018-02-03T13:10:23.375Z,45.30
2018-02-03T13:12:51.769Z,48.08
2018-02-03T13:15:19.249Z,51.70
2018-02-03T13:17:46.798Z,42.47
2018-02-03T13:20:14.441Z,43.25
2018-02-03T13:22:42.706Z,51.37
2018-02-03T13:25:10.963Z,46.58
2018-02-03T13:27:38.599Z,43.92
2018-02-03T13:30:06.244Z,36.22
2018-02-03T13:32:33.880Z,40.75
2018-02-03T13:35:02.248Z,38.95
2018-02-03T13:37:30.018Z,44.30
2018-02-03T13:39:57.636Z,34.47
2018-02-03T13:42:25.144Z,36.00
2018-02-03T13:44:56.590Z,42.67
2018-02-03T13:47:24.151Z,29.83
2018-02-03T13:49:52.399Z,33.92
2018-02-03T13:52:19.914Z,32.63
2018-02-03T13:54:47.394Z,35.38
2018-02-03T13:57:14.940Z,31.83
2018-02-03T13:59:43.360Z,29.98
2018-02-03T14:02:10.842Z,25.30
2018-02-03T14:04:39.270Z,33.08
2018-02-03T14:07:06.754Z,30.08
2018-02-03T14:09:34.300Z,26.37
2018-02-03T14:12:01.829Z,23.95
2018-02-03T14:14:29.309Z,24.10
2018-02-03T14:16:56.818Z,23.00
2018-02-03T14:19:24.389Z,23.35
2018-02-03T14:21:51.886Z,24.83
2018-02-03T14:24:25.214Z,19.60
2018-02-03T14:26:53.478Z,26.02
2018-02-03T14:29:20.961Z,19.85
2018-02-03T14:31:49.277Z,23.67
2018-02-03T14:34:16.894Z,23.55
2018-02-03T14:36:45.209Z,23.95
2018-02-03T14:39:12.798Z,25.37
2018-02-03T14:41:40.308Z,26.40
2018-02-03T14:44:08.593Z,21.98
2018-02-03T14:46:36.115Z,29.10
2018-02-03T14:49:03.619Z,23.27
2018-02-03T14:51:32.720Z,24.92
2018-02-03T14:54:00.269Z,19.00
2018-02-03T14:56:27.902Z,22.52
2018-02-03T14:58:56.283Z,19.90
2018-02-03T15:01:24.628Z,21.60
2018-02-03T15:03:52.289Z,18.95
2018-02-03T15:06:19.782Z,22.42
2018-02-03T15:08:48.105Z,25.15
2018-02-03T15:11:16.213Z,28.23
2018-02-03T15:13:43.854Z,30.35
2018-02-03T15:16:11.327Z,24.42
2018-02-03T15:18:38.827Z,25.73
2018-02-03T15:21:06.373Z,29.15
2018-02-03T15:23:34.652Z,23.92
2018-02-03T15:26:02.225Z,29.85
2018-02-03T15:28:29.831Z,28.75
2018-02-03T15:30:58.206Z,25.23
2018-02-03T15:33:25.748Z,21.33
2018-02-03T15:35:53.308Z,23.90
2018-02-03T15:38:20.908Z,28.50
2018-02-03T15:40:48.434Z,21.42
2018-02-03T15:43:15.930Z,21.15
2018-02-03T15:45:43.458Z,20.90
2018-02-03T15:48:10.955Z,23.77
2018-02-03T15:50:38.615Z,19.02
2018-02-03T15:53:06.893Z,20.80
2018-02-03T15:55:35.402Z,19.30
2018-02-03T15:58:03.726Z,22.98
2018-02-03T16:00:31.233Z,21.48
2018-02-03T16:02:58.790Z,20.55
2018-02-03T16:05:26.300Z,23.38
2018-02-03T16:07:53.838Z,25.35
2018-02-03T16:10:21.383Z,22.70
2018-02-03T16:12:48.961Z,22.95
2018-02-03T16:15:16.490Z,24.30
2018-02-03T16:17:44.810Z,25.62
2018-02-03T16:20:12.353Z,21.02
2018-02-03T16:22:39.836Z,20.25
2018-02-03T16:25:07.418Z,20.27
2018-02-03T16:27:34.937Z,14.93
2018-02-03T16:30:03.087Z,11.27
2018-02-03T16:32:30.639Z,12.27
2018-02-03T16:34:58.269Z,9.48
2018-02-03T16:37:25.836Z,9.55
2018-02-03T16:39:53.309Z,9.85
2018-02-03T16:42:21.638Z,14.68
2018-02-03T16:44:49.200Z,8.15
2018-02-03T16:47:16.750Z,12.45
2018-02-03T16:49:44.369Z,13.20
2018-02-03T16:52:12.681Z,10.07
2018-02-03T16:54:40.161Z,9.93
2018-02-03T16:57:07.799Z,15.02
2018-02-03T16:59:35.314Z,12.25
2018-02-03T17:02:02.798Z,11.38
2018-02-03T17:04:31.069Z,10.20
2018-02-03T17:06:59.310Z,9.98
2018-02-03T17:09:26.898Z,12.80
2018-02-03T17:11:55.417Z,10.98
2018-02-03T17:14:23.046Z,13.80
2018-02-03T17:16:51.361Z,13.38
2018-02-03T17:19:18.985Z,13.68
2018-02-03T17:21:47.247Z,12.70
2018-02-03T17:24:15.525Z,14.45
2018-02-03T17:26:43.215Z,14.60
2018-02-03T17:29:10.763Z,14.70
2018-02-03T17:31:38.314Z,16.00
2018-02-03T17:34:06.603Z,17.50
2018-02-03T17:36:39.734Z,19.60
2018-02-03T17:39:10.755Z,18.05
2018-02-03T17:41:39.470Z,16.73
2018-02-03T17:44:07.013Z,15.65
2018-02-03T17:46:40.365Z,16.95
2018-02-03T17:49:09.900Z,16.92
2018-02-03T17:51:38.838Z,15.98
2018-02-03T17:54:07.154Z,16.95
2018-02-03T17:56:40.261Z,18.37
2018-02-03T17:59:07.790Z,16.95
2018-02-03T18:01:36.055Z,20.40
2018-02-03T18:04:03.729Z,17.55
2018-02-03T18:06:37.859Z,18.83
2018-02-03T18:09:08.029Z,17.45
2018-02-03T18:11:35.557Z,17.75
2018-02-03T18:14:03.145Z,15.82
2018-02-03T18:16:30.647Z,17.20
2018-02-03T18:18:58.279Z,16.95
2018-02-03T18:21:25.905Z,18.35
2018-02-03T18:23:53.606Z,15.80
2018-02-03T18:26:21.073Z,17.27
2018-02-03T18:28:48.556Z,17.60
2018-02-03T18:31:16.151Z,14.70
2018-02-03T18:33:43.699Z,22.08
2018-02-03T18:36:11.205Z,14.95
2018-02-03T18:38:39.482Z,16.62
2018-02-03T18:41:07.730Z,20.85
2018-02-03T18:43:35.218Z,17.17
2018-02-03T18:46:03.536Z,19.15
2018-02-03T18:48:31.504Z,19.50
2018-02-03T18:50:58.986Z,17.25
2018-02-03T18:53:26.474Z,21.00
2018-02-03T18:55:54.001Z,25.65
2018-02-03T18:58:21.611Z,18.15
2018-02-03T19:00:49.128Z,19.08
2018-02-03T19:03:16.661Z,18.05
2018-02-03T19:05:44.169Z,17.00
2018-02-03T19:08:12.536Z,16.60
2018-02-03T19:10:40.124Z,19.15
2018-02-03T19:13:07.728Z,23.02
2018-02-03T19:15:35.286Z,24.23
2018-02-03T19:18:02.789Z,17.40
2018-02-03T19:20:30.424Z,18.15
2018-02-03T19:22:57.933Z,18.00
2018-02-03T19:25:25.641Z,17.27
2018-02-03T19:27:53.168Z,20.02
2018-02-03T19:30:20.706Z,16.48
2018-02-03T19:32:48.973Z,16.75
2018-02-03T19:35:17.225Z,18.58
2018-02-03T19:37:44.780Z,16.17
2018-02-03T19:40:12.267Z,18.35
2018-02-03T19:42:40.536Z,21.98
2018-02-03T19:45:08.901Z,18.37
2018-02-03T19:47:36.381Z,13.90
2018-02-03T19:50:04.648Z,17.08
2018-02-03T19:52:33.142Z,15.50
2018-02-03T19:55:01.394Z,17.02
2018-02-03T19:57:28.880Z,19.83
2018-02-03T19:59:57.150Z,17.67
2018-02-03T20:02:25.460Z,18.58
2018-02-03T20:04:52.996Z,18.58
2018-02-03T20:07:21.318Z,18.02
2018-02-03T20:09:48.834Z,17.85
2018-02-03T20:12:17.952Z,16.35
2018-02-03T20:14:45.513Z,17.87
2018-02-03T20:17:12.993Z,20.88
2018-02-03T20:19:40.535Z,19.75
2018-02-03T20:22:08.197Z,18.83
2018-02-03T20:24:36.337Z,20.25
2018-02-03T20:27:04.614Z,16.27
2018-02-03T20:29:32.327Z,17.87
2018-02-03T20:32:00.753Z,14.15
2018-02-03T20:34:28.466Z,16.40
2018-02-03T20:36:55.985Z,16.23
2018-02-03T20:39:23.528Z,14.23
2018-02-03T20:41:51.940Z,15.85
2018-02-03T20:44:20.254Z,18.33
2018-02-03T20:46:47.746Z,18.30
2018-02-03T20:49:16.009Z,15.00
2018-02-03T20:51:44.258Z,17.58
2018-02-03T20:54:11.737Z,18.55
2018-02-03T20:56:40.010Z,17.17
2018-02-03T20:59:07.539Z,13.95
2018-02-03T21:01:35.094Z,12.70
2018-02-03T21:04:02.685Z,13.50
2018-02-03T21:06:30.170Z,16.83
2018-02-03T21:08:57.654Z,17.25
2018-02-03T21:11:25.261Z,21.08
2018-02-03T21:13:52.891Z,15.55
2018-02-03T21:16:20.414Z,13.45
2018-02-03T21:18:54.056Z,14.48
2018-02-03T21:21:22.722Z,17.45
2018-02-03T21:23:50.215Z,15.02
2018-02-03T21:26:17.733Z,15.75
2018-02-03T21:28:45.261Z,18.02
2018-02-03T21:31:13.569Z,16.83
2018-02-03T21:33:41.162Z,14.63
2018-02-03T21:36:08.675Z,14.90
2018-02-03T21:38:36.958Z,16.73
2018-02-03T21:41:04.454Z,18.10
2018-02-03T21:43:31.966Z,14.57
2018-02-03T21:45:59.555Z,16.17
2018-02-03T21:48:27.099Z,18.75
2018-02-03T21:50:54.706Z,19.90
2018-02-03T21:53:22.208Z,18.02
2018-02-03T21:55:49.806Z,20.10
2018-02-03T21:58:17.366Z,25.73
2018-02-03T22:00:45.070Z,21.02
2018-02-03T22:03:13.321Z,21.98
2018-02-03T22:05:40.803Z,19.30
2018-02-03T22:08:09.083Z,18.77
2018-02-03T22:10:37.340Z,21.20
2018-02-03T22:13:04.975Z,17.30
2018-02-03T22:15:32.606Z,19.98
2018-02-03T22:18:00.312Z,23.70
2018-02-03T22:20:27.810Z,23.00
2018-02-03T22:22:56.740Z,19.30
2018-02-03T22:25:24.256Z,22.87
2018-02-03T22:27:51.759Z,22.83
2018-02-03T22:30:19.394Z,23.35
2018-02-03T22:32:49.264Z,19.90
2018-02-03T22:35:17.409Z,18.60
2018-02-03T22:37:44.962Z,22.52
2018-02-03T22:40:14.022Z,22.73
2018-02-03T22:42:41.758Z,17.85
2018-02-03T22:45:09.301Z,18.40
2018-02-03T22:47:36.822Z,15.95
2018-02-03T22:50:04.345Z,18.02
2018-02-03T22:52:36.259Z,18.52
2018-02-03T22:55:07.202Z,19.08
2018-02-03T22:57:36.002Z,19.42
2018-02-03T23:00:05.457Z,24.58
2018-02-03T23:02:44.732Z,21.27
2018-02-03T23:13:13.980Z,21.95
2018-02-03T23:15:41.679Z,23.15
2018-02-03T23:18:09.298Z,19.48
2018-02-03T23:20:36.830Z,23.38
2018-02-03T23:23:05.743Z,28.27
2018-02-03T23:25:33.298Z,25.90
2018-02-03T23:28:01.607Z,25.05
2018-02-03T23:30:30.306Z,25.73
2018-02-03T23:32:58.786Z,24.95
2018-02-03T23:35:26.362Z,28.80
2018-02-03T23:38:01.662Z,27.98
2018-02-03T23:40:41.125Z,30.08
2018-02-03T23:43:09.043Z,26.27
2018-02-03T23:45:36.755Z,31.87
2018-02-03T23:48:04.290Z,26.60
2018-02-03T23:50:33.396Z,32.40
2018-02-03T23:53:01.068Z,28.17
2018-02-03T23:55:31.384Z,31.52
2018-02-03T23:57:59.454Z,35.28
